createdAt,value
2019-03-29T00:00:37.130Z,90
2019-03-29T00:05:37.133Z,90
2019-03-29T00:10:37.136Z,90
2019-03-29T00:15:37.174Z,90
2019-03-29T00:20:37.178Z,90
2019-03-29T00:25:37.149Z,90
2019-03-29T00:30:37.141Z,90
2019-03-29T00:35:37.138Z,90
2019-03-29T00:40:37.164Z,90
2019-03-29T00:45:37.145Z,90
2019-03-29T00:50:37.158Z,90
2019-03-29T00:55:37.172Z,90
2019-03-29T01:00:37.157Z,90
2019-03-29T01:05:37.148Z,90
2019-03-29T01:10:37.162Z,90
2019-03-29T01:15:37.165Z,90
2019-03-29T01:20:37.169Z,90
2019-03-29T01:25:37.201Z,90
2019-03-29T01:30:37.177Z,90
2019-03-29T01:35:37.180Z,90
2019-03-29T01:40:37.178Z,90
2019-03-29T01:45:37.171Z,90
2019-03-29T01:50:37.178Z,90
2019-03-29T01:55:37.177Z,90
2019-03-29T02:00:37.226Z,90
2019-03-29T02:05:37.185Z,90
2019-03-29T02:10:37.182Z,90
2019-03-29T02:15:37.881Z,90
2019-03-29T02:20:37.210Z,90
2019-03-29T02:25:37.265Z,90
2019-03-29T02:30:37.267Z,90
2019-03-29T02:35:38.376Z,90
2019-03-29T02:40:37.243Z,90
2019-03-29T02:45:37.292Z,90
2019-03-29T02:50:37.310Z,90
2019-03-29T02:55:37.251Z,90
2019-03-29T03:00:37.323Z,90
2019-03-29T03:05:37.304Z,90
2019-03-29T03:10:37.290Z,90
2019-03-29T03:15:37.309Z,90
2019-03-29T03:20:37.314Z,90
2019-03-29T03:25:37.321Z,90
2019-03-29T03:30:37.334Z,90
2019-03-29T03:35:37.284Z,90
2019-03-29T03:40:37.292Z,90
2019-03-29T03:45:37.436Z,90
2019-03-29T03:50:37.317Z,90
2019-03-29T03:55:37.309Z,90
2019-03-29T04:00:37.344Z,90
2019-03-29T04:05:37.280Z,90
2019-03-29T04:10:37.294Z,90
2019-03-29T04:15:37.305Z,90
2019-03-29T04:20:37.274Z,90
2019-03-29T04:25:37.275Z,90
2019-03-29T04:30:37.298Z,90
2019-03-29T04:35:37.368Z,90
2019-03-29T04:40:37.312Z,90
2019-03-29T04:45:37.315Z,89
2019-03-29T04:50:37.283Z,89
2019-03-29T04:55:37.352Z,89
2019-03-29T05:00:37.295Z,89
2019-03-29T05:05:37.330Z,89
2019-03-29T05:10:37.365Z,89
2019-03-29T05:15:37.325Z,89
2019-03-29T05:20:37.308Z,89
2019-03-29T05:25:37.332Z,89
2019-03-29T05:30:37.375Z,89
2019-03-29T05:35:37.327Z,89
2019-03-29T05:40:37.340Z,89
2019-03-29T05:45:37.348Z,90
2019-03-29T05:50:37.315Z,90
2019-03-29T05:55:37.339Z,90
2019-03-29T06:00:37.389Z,90
2019-03-29T06:05:37.374Z,90
2019-03-29T06:10:48.138Z,90
2019-03-29T06:15:37.388Z,90
2019-03-29T06:20:37.448Z,91
2019-03-29T06:25:37.373Z,90
2019-03-29T06:30:37.384Z,90
2019-03-29T06:35:37.357Z,90
2019-03-29T06:40:37.394Z,90
2019-03-29T06:45:47.551Z,90
2019-03-29T06:50:37.454Z,90
2019-03-29T06:55:37.342Z,90
2019-03-29T07:00:37.321Z,90
2019-03-29T07:05:37.333Z,91
2019-03-29T07:10:37.397Z,91
2019-03-29T07:15:37.353Z,91
2019-03-29T07:20:37.378Z,91
2019-03-29T07:25:37.347Z,91
2019-03-29T07:30:37.339Z,91
2019-03-29T07:35:37.342Z,91
2019-03-29T07:40:37.360Z,91
2019-03-29T07:45:37.326Z,91
2019-03-29T07:50:37.351Z,91
2019-03-29T07:55:37.678Z,91
2019-03-29T08:00:37.359Z,91
2019-03-29T08:05:37.384Z,91
2019-03-29T08:10:37.371Z,91
2019-03-29T08:15:37.362Z,91
2019-03-29T08:20:41.888Z,91
2019-03-29T08:25:37.346Z,91
2019-03-29T08:30:37.357Z,91
2019-03-29T08:35:37.370Z,92
2019-03-29T08:40:37.505Z,92
2019-03-29T08:45:37.356Z,92
2019-03-29T08:50:37.377Z,92
2019-03-29T08:55:45.394Z,92
2019-03-29T09:00:37.371Z,92
2019-03-29T09:05:39.093Z,92
2019-03-29T09:10:37.391Z,92
2019-03-29T09:15:37.374Z,92
2019-03-29T09:20:37.384Z,92
2019-03-29T09:25:40.241Z,92
2019-03-29T09:30:37.384Z,92
2019-03-29T09:35:37.382Z,92
2019-03-29T09:40:37.425Z,92
2019-03-29T09:45:39.662Z,92
2019-03-29T09:50:37.486Z,92
2019-03-29T09:55:37.417Z,92
2019-03-29T10:00:37.398Z,93
2019-03-29T10:05:37.393Z,93
2019-03-29T10:10:37.409Z,93
2019-03-29T10:15:37.401Z,92
2019-03-29T10:20:37.536Z,92
2019-03-29T10:25:37.455Z,93
2019-03-29T10:30:37.439Z,93
2019-03-29T10:35:50.556Z,93
2019-03-29T10:40:37.455Z,90
2019-03-29T10:45:40.238Z,87
2019-03-29T10:50:37.409Z,86
2019-03-29T10:55:37.424Z,86
2019-03-29T11:00:37.464Z,79
2019-03-29T11:05:37.412Z,69
2019-03-29T11:10:37.463Z,68
2019-03-29T11:15:37.433Z,68
2019-03-29T11:20:37.466Z,61
2019-03-29T11:25:37.461Z,60
2019-03-29T11:30:42.314Z,59
2019-03-29T11:35:37.441Z,60
2019-03-29T11:40:37.473Z,56
2019-03-29T11:45:37.433Z,57
2019-03-29T11:50:37.435Z,55
2019-03-29T11:55:37.465Z,54
2019-03-29T12:00:37.450Z,56
2019-03-29T12:05:37.457Z,58
2019-03-29T12:10:37.486Z,57
2019-03-29T12:15:37.456Z,56
2019-03-29T12:20:37.519Z,47
2019-03-29T12:25:37.492Z,43
2019-03-29T12:30:37.662Z,46
2019-03-29T12:35:37.646Z,49
2019-03-29T12:40:37.538Z,52
2019-03-29T12:45:37.460Z,55
2019-03-29T12:50:37.463Z,58
2019-03-29T12:55:37.530Z,59
2019-03-29T13:00:37.507Z,60
2019-03-29T13:05:37.488Z,65
2019-03-29T13:10:37.476Z,66
2019-03-29T13:15:37.487Z,66
2019-03-29T13:20:37.483Z,67
2019-03-29T13:25:37.485Z,68
2019-03-29T13:30:37.495Z,70
2019-03-29T13:35:37.494Z,70
2019-03-29T13:40:37.505Z,69
2019-03-29T13:45:37.524Z,71
2019-03-29T13:50:37.570Z,73
2019-03-29T13:55:37.499Z,75
2019-03-29T14:00:37.530Z,76
2019-03-29T14:05:37.497Z,79
2019-03-29T14:10:37.507Z,80
2019-03-29T14:15:37.567Z,81
2019-03-29T14:20:37.498Z,80
2019-03-29T14:25:37.537Z,81
2019-03-29T14:30:37.524Z,81
2019-03-29T14:35:37.517Z,82
2019-03-29T14:40:37.522Z,81
2019-03-29T14:45:37.612Z,80
2019-03-29T14:50:37.527Z,80
2019-03-29T14:55:37.519Z,80
2019-03-29T15:00:37.564Z,81
2019-03-29T15:05:37.527Z,81
2019-03-29T15:10:37.542Z,81
2019-03-29T15:15:37.544Z,81
2019-03-29T15:20:37.539Z,81
2019-03-29T15:25:40.405Z,81
2019-03-29T15:30:37.590Z,81
2019-03-29T15:35:37.653Z,82
2019-03-29T15:40:37.593Z,82
2019-03-29T15:45:37.552Z,84
2019-03-29T15:50:37.554Z,84
2019-03-29T15:55:37.556Z,85
2019-03-29T16:00:37.575Z,85
2019-03-29T16:05:37.560Z,87
2019-03-29T16:10:37.562Z,87
2019-03-29T16:15:38.424Z,88
2019-03-29T16:20:37.571Z,88
2019-03-29T16:25:37.593Z,90
2019-03-29T16:30:37.607Z,91
2019-03-29T16:35:37.585Z,91
2019-03-29T16:40:37.578Z,91
2019-03-29T16:45:47.538Z,91
2019-03-29T16:50:37.582Z,91
2019-03-29T16:55:37.599Z,91
2019-03-29T17:00:37.616Z,91
2019-03-29T17:05:37.593Z,91
2019-03-29T17:10:37.595Z,91
2019-03-29T17:15:37.601Z,91
2019-03-29T17:20:37.619Z,91
2019-03-29T17:25:37.611Z,91
2019-03-29T17:30:37.652Z,91
2019-03-29T17:35:37.616Z,91
2019-03-29T17:40:37.605Z,91
2019-03-29T17:45:37.646Z,91
2019-03-29T17:50:37.637Z,91
2019-03-29T17:55:37.616Z,91
2019-03-29T18:00:37.637Z,91
2019-03-29T18:05:37.624Z,91
2019-03-29T18:10:37.629Z,91
2019-03-29T18:15:37.644Z,91
2019-03-29T18:20:37.635Z,90
2019-03-29T18:25:37.646Z,90
2019-03-29T18:30:37.666Z,90
2019-03-29T18:35:37.660Z,90
2019-03-29T18:40:37.672Z,90
2019-03-29T18:45:41.337Z,89
2019-03-29T18:50:37.651Z,90
2019-03-29T18:55:37.650Z,90
2019-03-29T19:00:37.655Z,89
2019-03-29T19:05:37.663Z,90
2019-03-29T19:10:37.679Z,90
2019-03-29T19:15:37.696Z,90
2019-03-29T19:20:37.669Z,90
2019-03-29T19:25:37.673Z,89
2019-03-29T19:30:37.674Z,89
2019-03-29T19:35:37.682Z,89
2019-03-29T19:40:37.678Z,89
2019-03-29T19:45:37.702Z,89
2019-03-29T19:50:37.691Z,89
2019-03-29T19:55:37.734Z,89
2019-03-29T20:00:37.711Z,89
2019-03-29T20:05:37.689Z,88
2019-03-29T20:10:37.705Z,88
2019-03-29T20:15:37.773Z,88
2019-03-29T20:20:37.698Z,88
2019-03-29T20:25:37.704Z,89
2019-03-29T20:30:37.707Z,89
2019-03-29T20:35:37.704Z,89
2019-03-29T20:40:37.715Z,89
2019-03-29T20:45:37.723Z,88
2019-03-29T20:50:37.713Z,88
2019-03-29T20:55:37.726Z,88
2019-03-29T21:00:37.749Z,88
2019-03-29T21:05:37.732Z,88
2019-03-29T21:10:37.722Z,88
2019-03-29T21:15:37.753Z,88
2019-03-29T21:20:37.733Z,88
2019-03-29T21:25:37.742Z,88
2019-03-29T21:30:37.758Z,88
2019-03-29T21:35:37.743Z,88
2019-03-29T21:40:37.759Z,88
2019-03-29T21:45:37.755Z,88
2019-03-29T21:50:37.751Z,88
2019-03-29T21:55:37.756Z,88
2019-03-29T22:00:37.765Z,88
2019-03-29T22:05:37.756Z,88
2019-03-29T22:10:37.750Z,88
2019-03-29T22:15:37.793Z,88
2019-03-29T22:20:37.842Z,88
2019-03-29T22:25:37.772Z,88
2019-03-29T22:30:37.805Z,88
2019-03-29T22:35:37.772Z,88
2019-03-29T22:40:37.841Z,88
2019-03-29T22:45:37.798Z,88
2019-03-29T22:50:37.778Z,88
2019-03-29T22:55:37.785Z,88
2019-03-29T23:00:37.794Z,88
2019-03-29T23:05:37.786Z,88
2019-03-29T23:10:37.811Z,88
2019-03-29T23:15:37.794Z,88
2019-03-29T23:20:37.807Z,88
2019-03-29T23:25:37.805Z,88
2019-03-29T23:30:37.824Z,88
2019-03-29T23:35:37.808Z,88
2019-03-29T23:40:37.803Z,88
2019-03-29T23:45:37.864Z,88
2019-03-29T23:50:37.815Z,88
2019-03-29T23:55:37.810Z,88
